createdAt,value
2019-04-03T00:02:15.808Z,76.85
2019-04-03T00:05:22.647Z,76.09
2019-04-03T00:08:29.539Z,74.84
2019-04-03T00:11:39.511Z,73.38
2019-04-03T00:14:45.872Z,73.40
2019-04-03T00:17:52.735Z,73.60
2019-04-03T00:21:02.329Z,74.33
2019-04-03T00:24:09.781Z,75.25
2019-04-03T00:27:16.659Z,74.94
2019-04-03T00:30:24.750Z,73.62
2019-04-03T00:33:31.618Z,73.68
2019-04-03T00:36:38.468Z,73.73
2019-04-03T00:39:47.527Z,73.47
2019-04-03T00:42:54.848Z,73.80
2019-04-03T00:46:01.837Z,72.36
2019-04-03T00:49:08.678Z,71.34
2019-04-03T00:52:15.569Z,71.37
2019-04-03T00:55:22.411Z,71.70
2019-04-03T00:58:47.712Z,72.04
2019-04-03T01:01:56.065Z,71.28
2019-04-03T01:05:03.760Z,72.54
2019-04-03T01:08:10.986Z,71.68
2019-04-03T01:11:17.972Z,71.62
2019-04-03T01:14:24.793Z,72.32
2019-04-03T01:17:34.399Z,72.25
2019-04-03T01:20:40.405Z,71.77
2019-04-03T01:23:50.170Z,72.68
2019-04-03T01:26:57.415Z,73.78
2019-04-03T01:30:04.711Z,74.96
2019-04-03T01:33:11.648Z,73.49
2019-04-03T01:36:18.527Z,74.49
2019-04-03T01:39:25.364Z,72.29
2019-04-03T01:42:32.241Z,71.03
2019-04-03T01:45:39.543Z,71.97
2019-04-03T01:48:49.222Z,72.36
2019-04-03T01:51:56.182Z,74.79
2019-04-03T01:55:04.254Z,77.62
2019-04-03T01:58:11.394Z,77.21
2019-04-03T02:01:18.251Z,74.74
2019-04-03T02:04:25.098Z,75.26
2019-04-03T02:07:31.969Z,75.07
2019-04-03T02:10:39.304Z,76.37
2019-04-03T02:13:46.989Z,76.05
2019-04-03T02:16:54.069Z,75.41
2019-04-03T02:20:01.155Z,76.01
2019-04-03T02:23:08.030Z,76.95
2019-04-03T02:26:14.910Z,76.40
2019-04-03T02:29:22.325Z,75.57
2019-04-03T02:32:29.262Z,74.42
2019-04-03T02:35:38.749Z,74.57
2019-04-03T02:38:46.941Z,74.61
2019-04-03T02:41:53.821Z,72.56
2019-04-03T02:45:00.811Z,72.05
2019-04-03T02:48:07.718Z,71.05
2019-04-03T02:51:17.006Z,72.26
2019-04-03T02:54:34.811Z,73.27
2019-04-03T02:57:39.101Z,73.71
2019-04-03T03:00:46.335Z,73.67
2019-04-03T03:03:53.216Z,73.68
2019-04-03T03:07:03.375Z,73.35
2019-04-03T03:10:09.437Z,72.31
2019-04-03T03:13:16.533Z,72.39
2019-04-03T03:16:23.558Z,72.08
2019-04-03T03:19:33.022Z,72.13
2019-04-03T03:22:41.527Z,71.92
2019-04-03T03:25:51.184Z,72.30
2019-04-03T03:29:14.161Z,74.16
2019-04-03T03:32:14.890Z,73.55
2019-04-03T03:35:25.999Z,73.06
2019-04-03T03:38:28.167Z,73.95
2019-04-03T03:41:34.640Z,74.74
2019-04-03T03:44:46.067Z,74.11
2019-04-03T03:47:53.347Z,72.91
2019-04-03T03:51:01.172Z,73.06
2019-04-03T03:54:08.069Z,75.23
2019-04-03T03:57:14.894Z,75.85
2019-04-03T04:00:23.220Z,74.75
2019-04-03T04:03:31.486Z,74.37
2019-04-03T04:06:38.628Z,75.22
2019-04-03T04:09:49.579Z,75.39
2019-04-03T04:12:54.052Z,74.12
2019-04-03T04:16:03.826Z,75.48
2019-04-03T04:19:10.069Z,78.80
2019-04-03T04:22:18.187Z,77.79
2019-04-03T04:25:25.973Z,78.25
2019-04-03T04:28:32.929Z,82.33
2019-04-03T04:31:43.356Z,81.10
2019-04-03T04:34:50.648Z,79.52
2019-04-03T04:37:57.629Z,80.19
2019-04-03T04:41:04.552Z,78.10
2019-04-03T04:44:14.215Z,79.19
2019-04-03T04:47:19.974Z,80.33
2019-04-03T04:50:26.969Z,78.61
2019-04-03T04:53:33.814Z,76.83
2019-04-03T04:56:41.077Z,79.07
2019-04-03T04:59:48.568Z,79.59
2019-04-03T05:02:56.572Z,78.21
2019-04-03T05:06:04.820Z,78.99
2019-04-03T05:09:11.701Z,78.96
2019-04-03T05:12:19.080Z,77.13
2019-04-03T05:15:26.099Z,76.92
2019-04-03T05:18:32.973Z,76.63
2019-04-03T05:21:40.393Z,75.22
2019-04-03T05:24:47.298Z,76.04
2019-04-03T05:27:54.215Z,78.45
2019-04-03T05:31:01.250Z,78.39
2019-04-03T05:34:08.128Z,76.63
2019-04-03T05:37:18.026Z,75.53
2019-04-03T05:40:26.209Z,76.72
2019-04-03T05:43:36.195Z,76.73
2019-04-03T05:46:43.150Z,77.18
2019-04-03T05:49:51.698Z,78.70
2019-04-03T05:52:58.577Z,79.73
2019-04-03T05:56:05.416Z,76.79
2019-04-03T05:59:12.312Z,77.24
2019-04-03T06:02:21.385Z,76.78
2019-04-03T06:05:29.513Z,77.75
2019-04-03T06:08:36.445Z,77.23
2019-04-03T06:11:43.304Z,76.37
2019-04-03T06:14:50.938Z,76.92
2019-04-03T06:17:57.915Z,78.24
2019-04-03T06:21:05.760Z,78.30
2019-04-03T06:24:12.772Z,77.76
2019-04-03T06:27:20.043Z,76.15
2019-04-03T06:30:27.511Z,76.87
2019-04-03T06:33:36.070Z,77.01
2019-04-03T06:36:43.194Z,78.56
2019-04-03T06:39:50.367Z,77.14
2019-04-03T06:42:57.376Z,76.51
2019-04-03T06:46:04.285Z,79.11
2019-04-03T06:49:11.199Z,75.42
2019-04-03T06:52:19.450Z,76.37
2019-04-03T06:55:26.855Z,75.02
2019-04-03T06:58:39.384Z,73.19
2019-04-03T07:01:42.857Z,72.75
2019-04-03T07:04:49.698Z,72.23
2019-04-03T07:07:56.583Z,70.54
2019-04-03T07:11:03.573Z,70.93
2019-04-03T07:14:11.638Z,71.19
2019-04-03T07:17:19.599Z,70.22
2019-04-03T07:20:26.822Z,70.45
2019-04-03T07:23:33.932Z,72.11
2019-04-03T07:26:40.835Z,71.28
2019-04-03T07:29:48.925Z,71.81
2019-04-03T07:32:57.989Z,70.72
2019-04-03T07:36:05.007Z,68.98
2019-04-03T07:39:12.031Z,69.11
2019-04-03T07:42:20.035Z,68.72
2019-04-03T07:45:27.115Z,68.92
2019-04-03T07:48:34.074Z,67.49
2019-04-03T07:51:42.728Z,67.66
2019-04-03T07:54:51.867Z,66.12
2019-04-03T07:57:59.973Z,65.62
2019-04-03T08:01:09.509Z,65.91
2019-04-03T08:04:16.625Z,64.80
2019-04-03T08:07:25.194Z,65.62
2019-04-03T08:10:33.055Z,64.31
2019-04-03T08:13:40.208Z,64.84
2019-04-03T08:16:48.830Z,63.33
2019-04-03T08:19:55.791Z,63.94
2019-04-03T08:23:04.727Z,63.38
2019-04-03T08:26:12.192Z,63.47
2019-04-03T08:29:19.342Z,62.57
2019-04-03T08:32:29.099Z,62.58
2019-04-03T08:35:36.459Z,62.33
2019-04-03T08:38:44.903Z,62.33
2019-04-03T08:41:55.285Z,62.55
2019-04-03T08:45:01.964Z,61.62
2019-04-03T08:48:09.110Z,62.01
2019-04-03T08:51:15.993Z,61.57
2019-04-03T08:54:28.631Z,63.83
2019-04-03T08:57:35.509Z,63.30
2019-04-03T09:00:42.391Z,62.82
2019-04-03T09:03:49.238Z,62.94
2019-04-03T09:06:56.354Z,60.69
2019-04-03T09:10:03.288Z,61.11
2019-04-03T09:13:17.791Z,61.18
2019-04-03T09:16:19.136Z,60.85
2019-04-03T09:19:27.158Z,61.87
2019-04-03T09:22:34.511Z,58.47
2019-04-03T09:25:41.583Z,60.67
2019-04-03T09:28:48.523Z,59.31
2019-04-03T09:31:56.611Z,59.00
2019-04-03T09:35:04.032Z,58.77
2019-04-03T09:38:11.038Z,58.57
2019-04-03T09:41:19.549Z,56.74
2019-04-03T09:44:26.474Z,58.14
2019-04-03T09:47:34.975Z,55.52
2019-04-03T09:50:42.204Z,54.82
2019-04-03T09:53:49.247Z,53.76
2019-04-03T09:57:01.654Z,53.57
2019-04-03T10:00:09.895Z,54.19
2019-04-03T10:03:15.709Z,52.67
2019-04-03T10:06:22.579Z,53.40
2019-04-03T10:09:30.970Z,54.85
2019-04-03T10:12:57.065Z,53.47
2019-04-03T10:16:04.395Z,55.50
2019-04-03T10:19:13.543Z,53.51
2019-04-03T10:22:19.963Z,54.08
2019-04-03T10:25:26.827Z,52.87
2019-04-03T10:28:35.524Z,55.24
2019-04-03T10:31:42.698Z,52.86
2019-04-03T10:34:50.032Z,52.96
2019-04-03T10:37:56.960Z,54.20
2019-04-03T10:41:04.039Z,53.09
2019-04-03T10:44:12.693Z,54.29
2019-04-03T10:47:24.707Z,53.26
2019-04-03T10:50:29.681Z,52.49
2019-04-03T10:53:36.904Z,52.75
2019-04-03T10:56:44.136Z,55.35
2019-04-03T10:59:54.506Z,52.02
2019-04-03T11:02:59.691Z,53.66
2019-04-03T11:06:06.676Z,52.92
2019-04-03T11:09:13.627Z,53.54
2019-04-03T11:12:20.564Z,52.75
2019-04-03T11:15:28.694Z,52.95
2019-04-03T11:18:35.880Z,54.23
2019-04-03T11:21:44.084Z,51.78
2019-04-03T11:24:51.882Z,50.91
2019-04-03T11:27:58.828Z,51.55
2019-04-03T11:31:06.165Z,52.23
2019-04-03T11:34:13.189Z,50.42
2019-04-03T11:37:20.099Z,51.93
2019-04-03T11:40:27.939Z,50.71
2019-04-03T11:43:34.959Z,52.03
2019-04-03T11:46:41.875Z,52.28
2019-04-03T11:49:49.827Z,55.14
2019-04-03T11:53:01.506Z,51.66
2019-04-03T11:56:06.608Z,51.47
2019-04-03T11:59:13.904Z,50.42
2019-04-03T12:02:24.028Z,52.14
2019-04-03T12:05:31.462Z,51.30
2019-04-03T12:08:38.467Z,50.68
2019-04-03T12:11:45.402Z,50.13
2019-04-03T12:14:52.281Z,49.07
2019-04-03T12:18:01.528Z,49.31
2019-04-03T12:21:09.957Z,51.00
2019-04-03T12:24:16.557Z,48.42
2019-04-03T12:27:26.258Z,51.61
2019-04-03T12:30:33.201Z,48.24
2019-04-03T12:33:52.011Z,48.49
2019-04-03T12:36:49.027Z,49.27
2019-04-03T12:39:56.270Z,51.41
2019-04-03T12:43:03.286Z,51.60
2019-04-03T12:46:10.167Z,50.42
2019-04-03T12:49:17.457Z,50.01
2019-04-03T12:52:25.745Z,49.99
2019-04-03T12:55:33.897Z,51.30
2019-04-03T12:58:40.990Z,51.19
2019-04-03T13:01:49.241Z,49.53
2019-04-03T13:04:56.961Z,49.62
2019-04-03T13:08:04.133Z,51.51
2019-04-03T13:11:11.178Z,51.70
2019-04-03T13:14:25.666Z,50.31
2019-04-03T13:17:27.199Z,52.22
2019-04-03T13:20:36.053Z,48.84
2019-04-03T13:23:45.745Z,47.30
2019-04-03T13:26:51.515Z,48.44
2019-04-03T13:29:58.427Z,47.42
2019-04-03T13:33:07.107Z,47.04
2019-04-03T13:36:13.876Z,47.57
2019-04-03T13:39:21.144Z,47.93
2019-04-03T13:42:31.062Z,46.50
2019-04-03T13:45:36.965Z,47.16
2019-04-03T13:48:44.976Z,45.72
2019-04-03T13:51:52.779Z,45.52
2019-04-03T13:55:00.091Z,45.95
2019-04-03T13:58:07.520Z,45.92
2019-04-03T14:01:14.829Z,44.73
2019-04-03T14:04:23.349Z,46.54
2019-04-03T14:07:31.622Z,47.29
2019-04-03T14:10:38.997Z,47.12
2019-04-03T14:13:45.978Z,47.37
2019-04-03T14:16:52.884Z,45.45
2019-04-03T14:19:59.808Z,46.60
2019-04-03T14:23:06.722Z,44.37
2019-04-03T14:26:14.663Z,43.92
2019-04-03T14:29:47.210Z,43.59
2019-04-03T14:32:34.549Z,41.93
2019-04-03T14:35:49.873Z,38.94
2019-04-03T14:38:50.298Z,39.27
2019-04-03T14:41:57.172Z,40.29
2019-04-03T14:45:05.228Z,39.08
2019-04-03T14:48:12.825Z,41.78
2019-04-03T14:51:22.938Z,40.64
2019-04-03T14:54:31.551Z,41.65
2019-04-03T14:57:39.334Z,41.50
2019-04-03T15:00:49.853Z,41.25
2019-04-03T15:04:00.759Z,41.68
2019-04-03T15:07:09.533Z,41.56
2019-04-03T15:10:17.837Z,43.04
2019-04-03T15:13:26.704Z,40.12
2019-04-03T15:16:33.764Z,40.75
2019-04-03T15:19:40.698Z,43.21
2019-04-03T15:22:47.887Z,43.00
2019-04-03T15:25:55.773Z,43.04
2019-04-03T15:29:02.809Z,44.46
2019-04-03T15:32:09.796Z,45.46
2019-04-03T15:35:17.126Z,46.25
2019-04-03T15:38:24.420Z,47.71
2019-04-03T15:41:34.208Z,47.15
2019-04-03T15:44:41.115Z,47.45
2019-04-03T15:47:48.453Z,47.50
2019-04-03T15:50:55.504Z,47.44
2019-04-03T15:54:02.399Z,48.14
2019-04-03T15:57:09.252Z,47.74
2019-04-03T16:00:21.331Z,47.07
2019-04-03T16:03:29.132Z,46.58
2019-04-03T16:06:36.801Z,48.46
2019-04-03T16:09:44.688Z,48.59
2019-04-03T16:12:52.038Z,48.34
2019-04-03T16:16:01.561Z,48.08
2019-04-03T16:19:11.376Z,48.39
2019-04-03T16:22:17.185Z,50.80
2019-04-03T16:25:24.415Z,49.53
2019-04-03T16:28:34.079Z,49.38
2019-04-03T16:31:39.996Z,49.08
2019-04-03T16:34:47.463Z,49.53
2019-04-03T16:37:56.580Z,49.12
2019-04-03T16:41:03.571Z,49.85
2019-04-03T16:44:10.537Z,49.62
2019-04-03T16:47:17.985Z,50.14
2019-04-03T16:50:27.322Z,49.94
2019-04-03T16:53:33.755Z,50.52
2019-04-03T16:56:40.803Z,52.18
2019-04-03T16:59:47.986Z,52.73
2019-04-03T17:02:59.118Z,51.97
2019-04-03T17:06:06.776Z,52.23
2019-04-03T17:09:13.867Z,52.19
2019-04-03T17:12:20.760Z,55.37
2019-04-03T17:15:32.263Z,58.97
2019-04-03T17:18:37.291Z,59.22
2019-04-03T17:21:44.395Z,61.06
2019-04-03T17:24:53.980Z,60.09
2019-04-03T17:28:04.583Z,62.12
2019-04-03T17:31:09.075Z,61.21
2019-04-03T17:34:16.082Z,63.47
2019-04-03T17:37:25.493Z,65.93
2019-04-03T17:40:31.536Z,64.05
2019-04-03T17:43:38.548Z,65.98
2019-04-03T17:46:48.612Z,62.09
2019-04-03T17:49:55.236Z,63.54
2019-04-03T17:53:02.187Z,64.46
2019-04-03T17:56:12.346Z,63.46
2019-04-03T17:59:18.319Z,63.28
2019-04-03T18:02:29.528Z,63.27
2019-04-03T18:05:36.103Z,63.70
2019-04-03T18:08:43.412Z,64.00
2019-04-03T18:11:50.293Z,63.98
2019-04-03T18:14:57.515Z,65.56
2019-04-03T18:18:05.230Z,66.00
2019-04-03T18:21:13.086Z,66.00
2019-04-03T18:24:23.025Z,67.21
2019-04-03T18:27:34.941Z,66.42
2019-04-03T18:30:42.550Z,65.96
2019-04-03T18:33:49.981Z,68.42
2019-04-03T18:36:57.962Z,69.69
2019-04-03T18:40:05.832Z,67.71
2019-04-03T18:43:12.726Z,66.47
2019-04-03T18:46:31.521Z,66.56
2019-04-03T18:49:32.339Z,64.24
2019-04-03T18:52:39.519Z,63.80
2019-04-03T18:55:46.453Z,63.71
2019-04-03T18:58:55.115Z,62.76
2019-04-03T19:02:03.773Z,62.96
2019-04-03T19:05:13.815Z,61.68
2019-04-03T19:08:19.541Z,61.28
2019-04-03T19:11:29.600Z,60.96
2019-04-03T19:14:39.390Z,61.08
2019-04-03T19:17:46.255Z,61.78
2019-04-03T19:20:53.284Z,61.47
2019-04-03T19:24:00.235Z,61.32
2019-04-03T19:27:07.172Z,60.38
2019-04-03T19:30:18.910Z,60.94
2019-04-03T19:33:28.052Z,61.77
2019-04-03T19:36:34.924Z,61.09
2019-04-03T19:39:41.827Z,60.71
2019-04-03T19:42:49.053Z,60.29
2019-04-03T19:45:56.051Z,60.48
2019-04-03T19:49:03.100Z,60.86
2019-04-03T19:52:10.075Z,60.29
2019-04-03T19:55:19.351Z,60.26
2019-04-03T19:58:28.933Z,60.60
2019-04-03T20:01:34.536Z,61.22
2019-04-03T20:04:41.443Z,62.43
2019-04-03T20:07:48.366Z,63.06
2019-04-03T20:10:55.352Z,63.62
2019-04-03T20:14:02.862Z,64.62
2019-04-03T20:17:11.270Z,63.68
2019-04-03T20:20:18.138Z,63.83
2019-04-03T20:23:30.300Z,63.64
2019-04-03T20:26:38.256Z,64.12
2019-04-03T20:29:45.191Z,64.18
2019-04-03T20:32:52.319Z,63.58
2019-04-03T20:35:59.337Z,62.73
2019-04-03T20:39:09.659Z,63.47
2019-04-03T20:42:16.570Z,65.06
2019-04-03T20:45:23.564Z,66.61
2019-04-03T20:48:30.449Z,68.48
2019-04-03T20:51:38.024Z,67.11
2019-04-03T20:54:47.593Z,67.11
2019-04-03T20:57:56.052Z,66.43
2019-04-03T21:01:06.679Z,67.88
2019-04-03T21:04:14.621Z,67.29
2019-04-03T21:07:23.764Z,68.43
2019-04-03T21:10:31.187Z,68.57
2019-04-03T21:13:39.778Z,68.42
2019-04-03T21:16:48.469Z,68.37
2019-04-03T21:19:58.254Z,67.49
2019-04-03T21:23:05.102Z,67.51
2019-04-03T21:26:13.790Z,67.25
2019-04-03T21:29:20.819Z,65.72
2019-04-03T21:32:28.803Z,65.86
2019-04-03T21:35:36.499Z,64.93
2019-04-03T21:38:44.249Z,64.23
2019-04-03T21:41:51.123Z,64.47
2019-04-03T21:44:58.085Z,63.83
2019-04-03T21:48:04.964Z,64.94
2019-04-03T21:51:11.952Z,65.38
2019-04-03T21:54:18.801Z,65.85
2019-04-03T21:57:25.729Z,65.94
2019-04-03T22:01:18.067Z,66.36
2019-04-03T22:04:25.073Z,65.76
2019-04-03T22:07:34.582Z,65.49
2019-04-03T22:10:50.271Z,66.52
2019-04-03T22:13:56.021Z,65.68
2019-04-03T22:17:04.354Z,65.36
2019-04-03T22:20:11.200Z,65.04
2019-04-03T22:23:18.106Z,63.51
2019-04-03T22:26:24.951Z,64.40
2019-04-03T22:29:31.832Z,63.97
2019-04-03T22:32:41.301Z,65.16
2019-04-03T22:35:47.198Z,63.92
2019-04-03T22:38:54.158Z,64.71
2019-04-03T22:42:02.058Z,64.94
2019-04-03T22:45:09.031Z,64.51
2019-04-03T22:48:15.918Z,63.26
2019-04-03T22:51:22.811Z,61.18
2019-04-03T22:54:29.816Z,59.71
2019-04-03T22:57:36.658Z,60.54
2019-04-03T23:00:46.107Z,62.12
2019-04-03T23:03:52.994Z,63.64
2019-04-03T23:06:59.879Z,64.34
2019-04-03T23:10:07.353Z,62.07
2019-04-03T23:13:14.240Z,60.88
2019-04-03T23:16:21.343Z,57.80
2019-04-03T23:19:28.591Z,57.36
2019-04-03T23:22:35.371Z,58.25
2019-04-03T23:25:43.253Z,58.15
2019-04-03T23:28:50.129Z,59.19
2019-04-03T23:31:57.068Z,59.78
2019-04-03T23:35:03.969Z,60.48
2019-04-03T23:38:10.887Z,59.98
2019-04-03T23:41:17.716Z,59.61
2019-04-03T23:44:24.608Z,59.37
2019-04-03T23:47:32.537Z,59.85
2019-04-03T23:50:40.146Z,60.24
2019-04-03T23:53:49.003Z,60.57
2019-04-03T23:56:55.571Z,60.40
